createdAt,value
2022-12-08T00:00:11.876Z,2.5
2022-12-08T00:03:13.353Z,2.5
2022-12-08T00:06:11.736Z,2.6
2022-12-08T00:09:11.822Z,2.6
2022-12-08T00:12:11.720Z,2.7
2022-12-08T00:15:13.170Z,2.7
2022-12-08T00:18:11.771Z,2.6
2022-12-08T00:21:11.901Z,2.6
2022-12-08T00:24:11.745Z,2.6
2022-12-08T00:27:11.749Z,2.6
2022-12-08T00:30:11.793Z,2.7
2022-12-08T00:33:11.793Z,2.7
2022-12-08T00:36:11.818Z,2.6
2022-12-08T00:39:11.751Z,2.6
2022-12-08T00:42:11.801Z,2.6
2022-12-08T00:45:11.785Z,2.5
2022-12-08T00:48:11.782Z,2.6
2022-12-08T00:51:11.883Z,2.6
2022-12-08T00:54:11.775Z,2.6
2022-12-08T00:57:11.727Z,2.7
2022-12-08T01:00:13.193Z,2.7
2022-12-08T01:03:12.462Z,2.7
2022-12-08T01:06:11.715Z,2.7
2022-12-08T01:09:11.861Z,2.7
2022-12-08T01:12:11.783Z,2.7
2022-12-08T01:15:14.075Z,2.6
2022-12-08T01:18:11.738Z,2.5
2022-12-08T01:21:11.787Z,2.4
2022-12-08T01:24:11.745Z,2.4
2022-12-08T01:27:11.742Z,2.4
2022-12-08T01:30:13.282Z,2.4
2022-12-08T01:33:11.787Z,2.4
2022-12-08T01:36:11.867Z,2.2
2022-12-08T01:39:11.750Z,2.1
2022-12-08T01:42:11.827Z,2
2022-12-08T01:45:11.873Z,1.8
2022-12-08T01:48:12.327Z,1.5
2022-12-08T01:51:11.789Z,1.4
2022-12-08T01:54:11.807Z,1.3
2022-12-08T01:57:11.783Z,1.1
2022-12-08T02:00:13.232Z,1.1
2022-12-08T02:03:12.295Z,1.1
2022-12-08T02:06:11.870Z,1.3
2022-12-08T02:09:11.790Z,1.3
2022-12-08T02:12:11.814Z,1.3
2022-12-08T02:15:16.728Z,1.3
2022-12-08T02:18:11.751Z,1.3
2022-12-08T02:21:11.721Z,1.5
2022-12-08T02:24:11.778Z,1.6
2022-12-08T02:27:11.779Z,1.8
2022-12-08T02:30:13.114Z,1.9
2022-12-08T02:33:11.695Z,2
2022-12-08T02:36:11.749Z,1.9
2022-12-08T02:39:11.756Z,1.9
2022-12-08T02:42:11.778Z,1.8
2022-12-08T02:45:11.893Z,1.8
2022-12-08T02:48:11.730Z,1.6
2022-12-08T02:51:11.694Z,1.5
2022-12-08T02:54:11.727Z,1.4
2022-12-08T02:57:11.765Z,1.3
2022-12-08T03:00:13.634Z,1.1
2022-12-08T03:03:12.344Z,1.1
2022-12-08T03:06:11.743Z,1.1
2022-12-08T03:09:11.684Z,1
2022-12-08T03:12:11.787Z,1
2022-12-08T03:15:11.808Z,0.9
2022-12-08T03:18:11.888Z,1
2022-12-08T03:21:11.930Z,1.1
2022-12-08T03:24:11.815Z,1.1
2022-12-08T03:27:11.803Z,1.1
2022-12-08T03:30:13.109Z,1.1
2022-12-08T03:33:11.793Z,1.3
2022-12-08T03:36:11.748Z,1.3
2022-12-08T03:39:11.719Z,1.4
2022-12-08T03:42:11.715Z,1.4
2022-12-08T03:45:11.769Z,1.5
2022-12-08T03:48:11.777Z,1.5
2022-12-08T03:51:11.797Z,1.5
2022-12-08T03:54:11.720Z,1.5
2022-12-08T03:57:11.800Z,1.5
2022-12-08T04:00:13.052Z,1.4
2022-12-08T04:03:12.349Z,1.4
2022-12-08T04:06:11.779Z,1.4
2022-12-08T04:09:11.774Z,1.4
2022-12-08T04:12:11.735Z,1.3
2022-12-08T04:15:11.791Z,1.3
2022-12-08T04:18:11.731Z,1.3
2022-12-08T04:21:11.792Z,1.3
2022-12-08T04:24:12.809Z,1.3
2022-12-08T04:27:11.779Z,1.4
2022-12-08T04:30:12.823Z,1.4
2022-12-08T04:33:11.828Z,1.4
2022-12-08T04:36:11.824Z,1.4
2022-12-08T04:39:11.751Z,1.4
2022-12-08T04:42:11.759Z,1.4
2022-12-08T04:45:11.768Z,1.4
2022-12-08T04:48:11.813Z,1.5
2022-12-08T04:51:11.744Z,1.5
2022-12-08T04:54:11.790Z,1.5
2022-12-08T04:57:11.793Z,1.5
2022-12-08T05:00:12.857Z,1.5
2022-12-08T05:03:12.280Z,1.5
2022-12-08T05:06:11.789Z,1.5
2022-12-08T05:09:11.737Z,1.5
2022-12-08T05:12:11.796Z,1.5
2022-12-08T05:15:11.858Z,1.5
2022-12-08T05:18:11.771Z,1.5
2022-12-08T05:21:11.797Z,1.5
2022-12-08T05:24:11.730Z,1.5
2022-12-08T05:27:11.703Z,1.5
2022-12-08T05:30:12.777Z,1.6
2022-12-08T05:33:11.775Z,1.6
2022-12-08T05:36:11.743Z,1.8
2022-12-08T05:39:11.724Z,1.8
2022-12-08T05:42:11.739Z,1.8
2022-12-08T05:45:11.964Z,1.6
2022-12-08T05:48:11.744Z,1.6
2022-12-08T05:51:11.753Z,1.6
2022-12-08T05:54:11.769Z,1.6
2022-12-08T05:57:11.677Z,1.6
2022-12-08T06:00:12.999Z,1.6
2022-12-08T06:03:12.885Z,1.6
2022-12-08T06:06:11.743Z,1.8
2022-12-08T06:09:11.744Z,1.8
2022-12-08T06:12:11.773Z,1.8
2022-12-08T06:15:11.689Z,1.9
2022-12-08T06:18:11.702Z,1.9
2022-12-08T06:21:11.670Z,2
2022-12-08T06:24:11.758Z,2
2022-12-08T06:27:11.727Z,2
2022-12-08T06:30:12.771Z,2
2022-12-08T06:33:11.738Z,2.1
2022-12-08T06:36:11.803Z,2.1
2022-12-08T06:39:11.741Z,2.1
2022-12-08T06:42:11.697Z,2.1
2022-12-08T06:45:11.690Z,2.1
2022-12-08T06:48:11.791Z,2.2
2022-12-08T06:51:11.706Z,2.2
2022-12-08T06:54:11.676Z,2.4
2022-12-08T06:57:11.696Z,2.5
2022-12-08T07:00:13.376Z,2.5
2022-12-08T07:03:11.951Z,2.6
2022-12-08T07:06:15.829Z,2.6
2022-12-08T07:09:11.796Z,2.7
2022-12-08T07:12:11.726Z,2.7
2022-12-08T07:15:11.770Z,2.7
2022-12-08T07:18:12.101Z,2.9
2022-12-08T07:21:11.828Z,2.9
2022-12-08T07:24:11.810Z,2.9
2022-12-08T07:27:11.793Z,2.9
2022-12-08T07:30:12.630Z,2.9
2022-12-08T07:33:11.799Z,3
2022-12-08T07:36:11.814Z,3
2022-12-08T07:39:11.880Z,3.1
2022-12-08T07:42:11.806Z,3.1
2022-12-08T07:45:11.870Z,3.1
2022-12-08T07:48:11.726Z,3.2
2022-12-08T07:51:11.802Z,3.2
2022-12-08T07:54:11.819Z,3.2
2022-12-08T07:57:11.904Z,3.2
2022-12-08T08:00:13.004Z,3.4
2022-12-08T08:03:12.402Z,3.5
2022-12-08T08:06:11.770Z,3.5
2022-12-08T08:09:11.771Z,3.6
2022-12-08T08:12:42.499Z,3.6
2022-12-08T08:15:11.860Z,3.7
2022-12-08T08:18:11.823Z,3.7
2022-12-08T08:21:55.632Z,3.9
2022-12-08T08:24:11.901Z,4
2022-12-08T08:27:11.864Z,4
2022-12-08T08:30:21.085Z,4.1
2022-12-08T08:33:11.747Z,4.2
2022-12-08T08:36:11.858Z,4.5
2022-12-08T08:39:11.768Z,4.6
2022-12-08T08:42:11.857Z,4.7
2022-12-08T08:45:12.008Z,4.9
2022-12-08T08:48:11.782Z,5
2022-12-08T08:51:11.758Z,5.1
2022-12-08T08:54:11.874Z,5.1
2022-12-08T08:57:11.886Z,5.2
2022-12-08T09:00:13.135Z,5.2
2022-12-08T09:03:12.223Z,5.4
2022-12-08T09:06:12.557Z,5.5
2022-12-08T09:09:11.791Z,5.6
2022-12-08T09:12:11.746Z,5.7
2022-12-08T09:15:11.801Z,5.9
2022-12-08T09:18:11.830Z,5.9
2022-12-08T09:21:11.805Z,6.1
2022-12-08T09:24:11.738Z,6.2
2022-12-08T09:27:11.877Z,6.4
2022-12-08T09:30:14.207Z,6.4
2022-12-08T09:33:11.863Z,6.2
2022-12-08T09:36:11.837Z,6.1
2022-12-08T09:39:11.774Z,6.1
2022-12-08T09:42:11.789Z,6.1
2022-12-08T09:45:11.845Z,6.1
2022-12-08T09:48:11.885Z,6.2
2022-12-08T09:51:11.820Z,6.5
2022-12-08T09:54:11.964Z,6.6
2022-12-08T09:57:11.853Z,6.7
2022-12-08T10:00:13.084Z,6.9
2022-12-08T10:03:18.821Z,7
2022-12-08T10:06:11.968Z,7.1
2022-12-08T10:09:22.912Z,7.1
2022-12-08T10:12:11.779Z,7
2022-12-08T10:15:11.872Z,7
2022-12-08T10:18:11.744Z,7
2022-12-08T10:21:11.764Z,7
2022-12-08T10:24:11.821Z,7
2022-12-08T10:27:11.772Z,6.9
2022-12-08T10:30:12.910Z,6.9
2022-12-08T10:33:11.800Z,6.9
2022-12-08T10:36:11.953Z,6.9
2022-12-08T10:39:11.708Z,6.7
2022-12-08T10:42:11.818Z,6.6
2022-12-08T10:45:11.812Z,6.4
2022-12-08T10:48:11.772Z,6.2
2022-12-08T10:51:11.854Z,6.2
2022-12-08T10:54:11.885Z,6.1
2022-12-08T10:57:11.910Z,6.1
2022-12-08T11:00:21.056Z,6.1
2022-12-08T11:03:12.358Z,5.9
2022-12-08T11:06:21.888Z,5.7
2022-12-08T11:09:11.783Z,5.5
2022-12-08T11:12:11.771Z,5.4
2022-12-08T11:15:11.884Z,5.2
2022-12-08T11:18:11.843Z,5.1
2022-12-08T11:21:11.812Z,5
2022-12-08T11:24:11.808Z,4.9
2022-12-08T11:27:11.775Z,4.7
2022-12-08T11:30:20.587Z,4.9
2022-12-08T11:33:11.862Z,5.2
2022-12-08T11:36:11.832Z,5.6
2022-12-08T11:39:11.905Z,6
2022-12-08T11:42:11.814Z,6.2
2022-12-08T11:45:13.062Z,6.4
2022-12-08T11:51:11.746Z,6.5
2022-12-08T11:54:11.890Z,6.6
2022-12-08T11:57:11.804Z,6.6
2022-12-08T12:00:12.810Z,6.5
2022-12-08T12:03:12.432Z,6.5
2022-12-08T12:09:11.822Z,6.5
2022-12-08T12:12:12.078Z,6.5
2022-12-08T12:15:11.816Z,6.5
2022-12-08T12:18:19.297Z,6.5
2022-12-08T12:21:11.758Z,6.4
2022-12-08T12:24:11.816Z,6.2
2022-12-08T12:27:11.828Z,6
2022-12-08T12:30:12.621Z,6
2022-12-08T12:33:11.828Z,6.1
2022-12-08T12:36:11.969Z,6.1
2022-12-08T12:39:11.907Z,6.1
2022-12-08T12:42:11.819Z,6.2
2022-12-08T12:45:11.849Z,6.5
2022-12-08T12:48:11.854Z,6.6
2022-12-08T12:51:11.756Z,6.6
2022-12-08T12:54:11.839Z,6.6
2022-12-08T12:57:11.830Z,6.5
2022-12-08T13:00:12.902Z,6.5
2022-12-08T13:03:12.332Z,6.4
2022-12-08T13:06:19.371Z,6.2
2022-12-08T13:09:11.921Z,6.1
2022-12-08T13:12:11.834Z,5.9
2022-12-08T13:15:11.942Z,5.7
2022-12-08T13:18:11.896Z,5.7
2022-12-08T13:21:11.858Z,5.9
2022-12-08T13:24:11.989Z,5.9
2022-12-08T13:27:11.726Z,5.9
2022-12-08T13:30:12.887Z,5.7
2022-12-08T13:33:30.592Z,5.6
2022-12-08T13:36:11.806Z,5.5
2022-12-08T13:39:11.812Z,5.4
2022-12-08T13:42:11.947Z,5.4
2022-12-08T13:57:24.411Z,5.1
2022-12-08T14:00:12.016Z,5
2022-12-08T14:03:12.186Z,4.9
2022-12-08T14:06:25.356Z,4.7
2022-12-08T14:09:22.585Z,4.7
2022-12-08T14:12:11.776Z,4.6
2022-12-08T14:15:16.019Z,4.5
2022-12-08T14:18:11.815Z,4.4
2022-12-08T14:21:40.629Z,4.2
2022-12-08T14:24:12.131Z,4.1
2022-12-08T14:27:11.925Z,4
2022-12-08T14:30:11.928Z,3.9
2022-12-08T14:33:11.783Z,3.9
2022-12-08T14:36:11.859Z,3.7
2022-12-08T14:39:11.842Z,3.6
2022-12-08T14:42:11.857Z,3.6
2022-12-08T14:45:11.935Z,3.5
2022-12-08T14:48:11.850Z,3.5
2022-12-08T14:51:11.800Z,3.4
2022-12-08T14:54:12.604Z,3.4
2022-12-08T14:57:11.968Z,3.2
2022-12-08T15:00:13.037Z,3.1
2022-12-08T15:03:11.843Z,3
2022-12-08T15:06:11.843Z,2.9
2022-12-08T15:09:11.797Z,2.7
2022-12-08T15:12:11.777Z,2.7
2022-12-08T15:15:11.789Z,2.6
2022-12-08T15:18:12.549Z,2.5
2022-12-08T15:21:11.817Z,2.4
2022-12-08T15:24:11.783Z,2.2
2022-12-08T15:27:11.879Z,2.1
2022-12-08T15:30:13.107Z,2
2022-12-08T15:33:11.822Z,2
2022-12-08T15:36:11.774Z,1.9
2022-12-08T15:39:11.752Z,1.8
2022-12-08T15:42:11.782Z,1.8
2022-12-08T15:45:11.770Z,1.6
2022-12-08T15:48:11.872Z,1.6
2022-12-08T15:51:11.773Z,1.6
2022-12-08T15:54:11.778Z,1.8
2022-12-08T16:00:56.374Z,1.8
2022-12-08T16:09:25.616Z,1.6
2022-12-08T16:12:22.070Z,1.6
2022-12-08T16:18:11.829Z,1.5
2022-12-08T16:24:20.411Z,1.5
2022-12-08T16:30:11.897Z,1.5
2022-12-08T16:33:11.734Z,1.5
2022-12-08T16:36:11.906Z,1.4
2022-12-08T16:39:11.986Z,1.4
2022-12-08T16:42:11.798Z,1.4
2022-12-08T16:45:13.039Z,1.3
2022-12-08T16:48:11.702Z,1.3
2022-12-08T16:51:11.767Z,1.3
2022-12-08T16:54:11.798Z,1.4
2022-12-08T16:57:11.927Z,1.4
2022-12-08T17:00:13.176Z,1.5
2022-12-08T17:03:11.736Z,1.5
2022-12-08T17:06:11.737Z,1.6
2022-12-08T17:09:11.823Z,1.6
2022-12-08T17:12:15.549Z,1.8
2022-12-08T17:15:13.004Z,1.8
2022-12-08T17:18:12.038Z,1.8
2022-12-08T17:21:11.763Z,1.9
2022-12-08T17:24:13.709Z,1.9
2022-12-08T17:27:11.913Z,1.9
2022-12-08T17:30:13.048Z,1.9
2022-12-08T17:33:11.803Z,1.9
2022-12-08T17:36:11.824Z,1.9
2022-12-08T17:39:19.200Z,2
2022-12-08T17:42:11.747Z,2
2022-12-08T17:45:13.007Z,2
2022-12-08T17:48:11.741Z,2
2022-12-08T17:51:11.767Z,2
2022-12-08T17:54:11.750Z,2.1
2022-12-08T17:57:11.929Z,2.1
2022-12-08T18:00:12.938Z,2.1
2022-12-08T18:03:11.840Z,2.1
2022-12-08T18:06:11.812Z,2.1
2022-12-08T18:09:11.922Z,2.2
2022-12-08T18:12:11.788Z,2.2
2022-12-08T18:15:11.764Z,2.2
2022-12-08T18:18:11.815Z,2.2
2022-12-08T18:21:11.761Z,2.2
2022-12-08T18:24:11.816Z,2.2
2022-12-08T18:27:11.806Z,2.2
2022-12-08T18:30:12.815Z,2.1
2022-12-08T18:33:11.888Z,2.1
2022-12-08T18:36:11.838Z,2.1
2022-12-08T18:39:21.240Z,2.1
2022-12-08T18:42:11.750Z,2.1
2022-12-08T18:45:11.777Z,2.1
2022-12-08T18:48:11.745Z,2.1
2022-12-08T18:51:11.769Z,2.1
2022-12-08T18:54:11.834Z,2.2
2022-12-08T18:57:11.737Z,2.2
2022-12-08T19:00:13.491Z,2.2
2022-12-08T19:03:12.263Z,2.2
2022-12-08T19:06:11.753Z,2.2
2022-12-08T19:09:11.890Z,2.4
2022-12-08T19:12:11.838Z,2.4
2022-12-08T19:15:13.449Z,2.4
2022-12-08T19:18:11.809Z,2.5
2022-12-08T19:21:12.088Z,2.5
2022-12-08T19:24:11.825Z,2.5
2022-12-08T19:27:11.800Z,2.5
2022-12-08T19:30:12.841Z,2.5
2022-12-08T19:33:11.803Z,2.6
2022-12-08T19:36:11.776Z,2.6
2022-12-08T19:39:11.767Z,2.6
2022-12-08T19:42:11.789Z,2.5
2022-12-08T19:45:11.814Z,2.6
2022-12-08T19:48:11.794Z,2.5
2022-12-08T19:51:11.809Z,2.5
2022-12-08T19:54:11.874Z,2.4
2022-12-08T19:57:11.754Z,2.2
2022-12-08T20:00:12.770Z,2.2
2022-12-08T20:03:12.477Z,2.1
2022-12-08T20:06:11.906Z,2
2022-12-08T20:09:11.755Z,1.9
2022-12-08T20:12:11.873Z,1.8
2022-12-08T20:15:11.905Z,1.5
2022-12-08T20:18:11.841Z,1.3
2022-12-08T20:21:11.874Z,1
2022-12-08T20:24:11.800Z,0.9
2022-12-08T20:27:11.935Z,0.6
2022-12-08T20:30:19.706Z,0.5
2022-12-08T20:33:11.866Z,0.4
2022-12-08T20:36:11.989Z,0.1
2022-12-08T20:39:11.884Z,0
2022-12-08T20:42:11.789Z,0
2022-12-08T20:45:13.191Z,-0.3
2022-12-08T20:48:12.189Z,-0.3
2022-12-08T20:51:12.584Z,-0.4
2022-12-08T20:54:12.492Z,-0.5
2022-12-08T20:57:12.547Z,-0.6
2022-12-08T21:00:14.497Z,-0.9
2022-12-08T21:03:13.880Z,-1
2022-12-08T21:06:12.513Z,-1.1
2022-12-08T21:09:12.927Z,-1.3
2022-12-08T21:12:12.207Z,-1.3
2022-12-08T21:15:12.528Z,-1.4
2022-12-08T21:18:13.152Z,-1.5
2022-12-08T21:21:11.935Z,-1.5
2022-12-08T21:24:12.700Z,0.4
2022-12-08T21:27:12.581Z,0.2
2022-12-08T21:30:14.212Z,-1.3
2022-12-08T21:33:13.526Z,-0.8
2022-12-08T21:36:12.406Z,-0.5
2022-12-08T21:39:12.752Z,-0.5
2022-12-08T21:42:12.427Z,-0.5
2022-12-08T21:45:12.900Z,-0.5
2022-12-08T21:48:22.911Z,-0.6
2022-12-08T21:51:12.258Z,-0.6
2022-12-08T21:54:21.178Z,-0.6
2022-12-08T21:57:12.569Z,-0.8
2022-12-08T22:00:14.721Z,-0.8
2022-12-08T22:03:13.415Z,-0.9
2022-12-08T22:06:12.421Z,-1.1
2022-12-08T22:09:13.657Z,-1.4
2022-12-08T22:12:12.576Z,-1.5
2022-12-08T22:15:12.813Z,0.4
2022-12-08T22:18:13.480Z,0.2
2022-12-08T22:21:14.373Z,0.1
2022-12-08T22:24:12.991Z,0
2022-12-08T22:27:12.815Z,-0.1
2022-12-08T22:30:14.676Z,-0.3
2022-12-08T22:33:12.793Z,-0.4
2022-12-08T22:36:22.521Z,-0.4
2022-12-08T22:39:12.123Z,-0.5
2022-12-08T22:42:12.658Z,-0.5
2022-12-08T22:45:12.732Z,-0.5
2022-12-08T22:48:12.385Z,-0.5
2022-12-08T22:51:12.394Z,-0.6
2022-12-08T22:54:12.529Z,-0.6
2022-12-08T22:57:11.934Z,-0.8
2022-12-08T23:00:15.150Z,-0.8
2022-12-08T23:03:12.973Z,-0.8
2022-12-08T23:06:13.234Z,-0.8
2022-12-08T23:09:12.822Z,-0.8
2022-12-08T23:12:12.640Z,-0.6
2022-12-08T23:15:11.915Z,-0.5
2022-12-08T23:18:13.436Z,-0.5
2022-12-08T23:21:12.310Z,-0.4
2022-12-08T23:24:12.137Z,-0.3
2022-12-08T23:27:12.643Z,-0.1
2022-12-08T23:30:13.997Z,0.1
2022-12-08T23:33:13.539Z,0.4
2022-12-08T23:36:12.400Z,-1.4
2022-12-08T23:39:12.683Z,-1.3
2022-12-08T23:42:12.416Z,-1
2022-12-08T23:45:12.480Z,-0.9
2022-12-08T23:48:12.220Z,-0.9
2022-12-08T23:51:12.627Z,-0.9
2022-12-08T23:54:12.580Z,-0.9
2022-12-08T23:57:12.492Z,-1
